createdAt,value
2023-05-02T00:00:50.929Z,7.08
2023-05-02T00:03:17.669Z,7.13
2023-05-02T00:05:44.940Z,7.18
2023-05-02T00:08:11.907Z,7.25
2023-05-02T00:10:38.654Z,7.19
2023-05-02T00:13:05.300Z,7.21
2023-05-02T00:15:31.733Z,7.23
2023-05-02T00:17:58.441Z,7.28
2023-05-02T00:20:24.949Z,7.31
2023-05-02T00:22:51.711Z,7.35
2023-05-02T00:25:18.137Z,7.47
2023-05-02T00:27:46.950Z,7.58
2023-05-02T00:30:14.165Z,7.66
2023-05-02T00:32:40.746Z,7.76
2023-05-02T00:35:08.724Z,7.88
2023-05-02T00:37:35.854Z,8.01
2023-05-02T00:40:03.583Z,8.17
2023-05-02T00:42:34.455Z,8.36
2023-05-02T00:45:00.807Z,8.45
2023-05-02T00:47:27.364Z,8.51
2023-05-02T00:49:54.072Z,8.62
2023-05-02T00:52:20.788Z,8.66
2023-05-02T00:54:47.268Z,8.79
2023-05-02T00:57:14.041Z,8.83
2023-05-02T00:59:40.596Z,8.86
2023-05-02T01:02:23.305Z,8.89
2023-05-02T01:05:11.748Z,8.86
2023-05-02T01:07:47.074Z,8.80
2023-05-02T01:10:30.516Z,8.79
2023-05-02T01:13:03.423Z,8.74
2023-05-02T01:15:32.579Z,8.81
2023-05-02T01:18:01.828Z,8.91
2023-05-02T01:20:31.129Z,8.92
2023-05-02T01:23:04.686Z,8.99
2023-05-02T01:25:55.056Z,9.01
2023-05-02T01:28:57.309Z,9.12
2023-05-02T01:31:27.047Z,9.23
2023-05-02T01:33:55.811Z,9.25
2023-05-02T01:36:26.741Z,9.33
2023-05-02T01:38:55.634Z,9.30
2023-05-02T01:41:26.194Z,9.32
2023-05-02T01:43:56.642Z,9.35
2023-05-02T01:46:25.419Z,9.42
2023-05-02T01:48:53.478Z,9.49
2023-05-02T01:51:21.737Z,9.48
2023-05-02T01:53:50.264Z,9.60
2023-05-02T01:56:19.289Z,9.66
2023-05-02T01:58:47.997Z,9.63
2023-05-02T02:01:18.061Z,9.68
2023-05-02T02:03:46.727Z,9.69
2023-05-02T02:06:16.044Z,9.72
2023-05-02T02:08:42.863Z,9.76
2023-05-02T02:11:13.057Z,9.79
2023-05-02T02:13:49.033Z,9.80
2023-05-02T02:16:21.618Z,9.77
2023-05-02T02:18:48.166Z,9.77
2023-05-02T02:21:18.961Z,9.80
2023-05-02T02:23:48.426Z,9.77
2023-05-02T02:26:17.356Z,9.85
2023-05-02T02:28:44.217Z,9.76
2023-05-02T02:31:10.770Z,9.77
2023-05-02T02:33:37.972Z,9.85
2023-05-02T02:36:15.092Z,9.74
2023-05-02T02:38:44.954Z,9.72
2023-05-02T02:41:27.665Z,9.67
2023-05-02T02:44:21.377Z,9.58
2023-05-02T02:46:57.608Z,9.62
2023-05-02T02:49:32.083Z,9.60
2023-05-02T02:52:03.747Z,9.65
2023-05-02T02:54:46.997Z,9.67
2023-05-02T02:57:24.748Z,9.60
2023-05-02T03:00:00.346Z,9.57
2023-05-02T03:02:31.316Z,9.60
2023-05-02T03:04:58.735Z,9.58
2023-05-02T03:07:27.668Z,9.55
2023-05-02T03:09:54.093Z,9.50
2023-05-02T03:12:21.051Z,9.49
2023-05-02T03:14:47.530Z,9.49
2023-05-02T03:17:13.885Z,9.58
2023-05-02T03:19:40.910Z,9.54
2023-05-02T03:22:07.271Z,9.51
2023-05-02T03:24:33.621Z,9.54
2023-05-02T03:27:00.060Z,9.53
2023-05-02T03:29:26.705Z,9.43
2023-05-02T03:31:53.294Z,9.43
2023-05-02T03:34:21.810Z,9.43
2023-05-02T03:36:48.238Z,9.38
2023-05-02T03:39:15.584Z,9.45
2023-05-02T03:41:43.649Z,9.43
2023-05-02T03:44:10.038Z,9.43
2023-05-02T03:46:36.700Z,9.34
2023-05-02T03:49:03.446Z,9.40
2023-05-02T03:51:30.034Z,9.35
2023-05-02T03:53:56.579Z,9.38
2023-05-02T03:56:23.098Z,9.36
2023-05-02T03:58:49.488Z,9.38
2023-05-02T04:01:17.036Z,9.43
2023-05-02T04:03:43.785Z,9.36
2023-05-02T04:06:10.775Z,9.36
2023-05-02T04:08:37.623Z,9.33
2023-05-02T04:11:04.340Z,9.29
2023-05-02T04:13:31.143Z,9.38
2023-05-02T04:15:57.526Z,9.30
2023-05-02T04:18:24.187Z,9.32
2023-05-02T04:20:50.677Z,9.28
2023-05-02T04:23:17.915Z,9.29
2023-05-02T04:25:54.968Z,9.29
2023-05-02T04:28:22.242Z,9.33
2023-05-02T04:30:52.252Z,9.28
2023-05-02T04:33:18.702Z,9.24
2023-05-02T04:35:45.949Z,9.33
2023-05-02T04:38:12.362Z,9.22
2023-05-02T04:40:38.978Z,9.24
2023-05-02T04:43:05.698Z,9.28
2023-05-02T04:45:32.564Z,9.29
2023-05-02T04:47:59.017Z,9.35
2023-05-02T04:50:25.922Z,9.41
2023-05-02T04:52:52.720Z,9.39
2023-05-02T04:55:19.420Z,9.45
2023-05-02T04:57:46.125Z,9.54
2023-05-02T05:00:13.010Z,9.45
2023-05-02T05:02:40.212Z,9.46
2023-05-02T05:05:06.947Z,9.45
2023-05-02T05:07:33.686Z,9.47
2023-05-02T05:10:00.918Z,9.48
2023-05-02T05:12:27.500Z,9.52
2023-05-02T05:14:54.053Z,9.45
2023-05-02T05:17:20.478Z,9.50
2023-05-02T05:19:47.178Z,9.48
2023-05-02T05:22:13.824Z,9.51
2023-05-02T05:24:40.735Z,9.55
2023-05-02T05:27:07.140Z,9.48
2023-05-02T05:29:33.553Z,9.46
2023-05-02T05:31:59.988Z,9.47
2023-05-02T05:34:27.071Z,9.47
2023-05-02T05:36:53.890Z,9.48
2023-05-02T05:39:20.294Z,9.46
2023-05-02T05:41:47.130Z,9.54
2023-05-02T05:44:14.045Z,9.56
2023-05-02T05:46:41.318Z,9.62
2023-05-02T05:49:07.861Z,9.67
2023-05-02T05:51:35.384Z,9.70
2023-05-02T05:54:02.104Z,9.71
2023-05-02T05:56:28.449Z,9.74
2023-05-02T05:58:54.977Z,9.72
2023-05-02T06:01:21.652Z,9.73
2023-05-02T06:03:48.436Z,9.75
2023-05-02T06:06:15.089Z,9.77
2023-05-02T06:08:41.583Z,9.82
2023-05-02T06:11:13.996Z,9.90
2023-05-02T06:13:40.490Z,9.80
2023-05-02T06:16:07.123Z,9.87
2023-05-02T06:18:33.577Z,9.87
2023-05-02T06:21:04.913Z,9.89
2023-05-02T06:23:32.986Z,9.92
2023-05-02T06:26:01.034Z,10.01
2023-05-02T06:28:28.178Z,9.91
2023-05-02T06:30:59.740Z,9.79
2023-05-02T06:33:26.781Z,9.82
2023-05-02T06:35:53.762Z,9.82
2023-05-02T06:38:20.769Z,9.83
2023-05-02T06:40:47.825Z,9.85
2023-05-02T06:43:14.800Z,10.00
2023-05-02T06:45:41.961Z,9.96
2023-05-02T06:48:08.625Z,9.98
2023-05-02T06:50:35.497Z,9.98
2023-05-02T06:53:02.213Z,10.00
2023-05-02T06:55:28.629Z,9.97
2023-05-02T06:57:55.708Z,10.01
2023-05-02T07:00:22.507Z,10.04
2023-05-02T07:02:49.659Z,10.03
2023-05-02T07:05:16.528Z,10.11
2023-05-02T07:07:43.626Z,10.21
2023-05-02T07:10:11.271Z,10.23
2023-05-02T07:12:39.308Z,10.28
2023-05-02T07:15:06.732Z,10.34
2023-05-02T07:17:33.321Z,10.66
2023-05-02T07:19:59.888Z,10.76
2023-05-02T07:22:26.677Z,10.78
2023-05-02T07:25:01.886Z,10.83
2023-05-02T07:27:28.287Z,10.90
2023-05-02T07:29:55.044Z,10.94
2023-05-02T07:32:25.995Z,10.94
2023-05-02T07:34:57.361Z,10.97
2023-05-02T07:37:23.733Z,10.98
2023-05-02T07:39:50.237Z,11.04
2023-05-02T07:42:16.631Z,10.72
2023-05-02T07:44:43.277Z,10.84
2023-05-02T07:47:09.866Z,10.67
2023-05-02T07:49:36.836Z,10.67
2023-05-02T07:52:04.266Z,10.71
2023-05-02T07:54:30.672Z,10.58
2023-05-02T07:56:58.682Z,10.49
2023-05-02T07:59:25.144Z,10.45
2023-05-02T08:01:51.564Z,10.62
2023-05-02T08:04:18.108Z,10.61
2023-05-02T08:06:45.301Z,10.70
2023-05-02T08:09:12.125Z,10.85
2023-05-02T08:11:38.593Z,10.92
2023-05-02T08:14:04.968Z,11.15
2023-05-02T08:16:31.488Z,11.42
2023-05-02T08:18:58.251Z,11.38
2023-05-02T08:21:24.704Z,11.27
2023-05-02T08:23:51.444Z,11.22
2023-05-02T08:26:19.384Z,10.99
2023-05-02T08:28:46.269Z,10.76
2023-05-02T08:31:12.711Z,10.84
2023-05-02T08:33:39.145Z,11.03
2023-05-02T08:36:13.192Z,11.34
2023-05-02T08:38:40.064Z,11.33
2023-05-02T08:41:18.580Z,11.38
2023-05-02T08:43:46.155Z,11.53
2023-05-02T08:46:14.439Z,11.64
2023-05-02T08:48:43.289Z,11.76
2023-05-02T08:51:12.285Z,11.69
2023-05-02T08:53:40.043Z,11.73
2023-05-02T08:56:08.671Z,11.73
2023-05-02T08:58:39.367Z,11.90
2023-05-02T09:01:21.219Z,12.06
2023-05-02T09:03:48.891Z,12.18
2023-05-02T09:06:20.981Z,12.07
2023-05-02T09:08:49.418Z,11.89
2023-05-02T09:11:17.065Z,12.16
2023-05-02T09:13:51.637Z,12.15
2023-05-02T09:16:22.998Z,12.06
2023-05-02T09:18:51.712Z,12.28
2023-05-02T09:21:21.394Z,12.18
2023-05-02T09:23:52.813Z,12.05
2023-05-02T09:26:31.103Z,12.31
2023-05-02T09:28:59.921Z,12.25
2023-05-02T09:31:54.120Z,12.18
2023-05-02T09:34:20.750Z,12.27
2023-05-02T09:36:53.752Z,12.06
2023-05-02T09:39:26.061Z,12.15
2023-05-02T09:41:53.450Z,12.02
2023-05-02T09:44:25.061Z,12.21
2023-05-02T09:46:53.578Z,12.14
2023-05-02T09:49:39.882Z,12.07
2023-05-02T09:52:17.001Z,12.07
2023-05-02T09:54:43.596Z,11.99
2023-05-02T09:57:11.004Z,11.87
2023-05-02T09:59:39.450Z,11.99
2023-05-02T10:02:07.431Z,12.06
2023-05-02T10:04:34.646Z,12.24
2023-05-02T10:07:03.279Z,12.45
2023-05-02T10:09:32.540Z,12.27
2023-05-02T10:12:04.930Z,12.25
2023-05-02T10:14:31.766Z,12.29
2023-05-02T10:17:05.680Z,12.21
2023-05-02T10:19:53.023Z,11.90
2023-05-02T10:22:19.967Z,11.87
2023-05-02T10:24:49.270Z,11.91
2023-05-02T10:27:16.071Z,11.88
2023-05-02T10:29:42.815Z,11.82
2023-05-02T10:32:10.795Z,11.76
2023-05-02T10:34:40.711Z,11.70
2023-05-02T10:37:07.220Z,11.75
2023-05-02T10:39:34.004Z,11.74
2023-05-02T10:42:03.298Z,11.63
2023-05-02T10:44:33.756Z,11.25
2023-05-02T10:47:01.142Z,11.31
2023-05-02T10:49:30.037Z,11.42
2023-05-02T10:51:56.524Z,11.41
2023-05-02T10:54:24.656Z,11.23
2023-05-02T10:57:09.323Z,11.14
2023-05-02T10:59:42.838Z,11.15
2023-05-02T11:02:32.651Z,11.47
2023-05-02T11:05:06.677Z,11.44
2023-05-02T11:07:35.922Z,11.56
2023-05-02T11:10:17.343Z,11.64
2023-05-02T11:12:50.624Z,11.76
2023-05-02T11:15:28.099Z,11.80
2023-05-02T11:18:02.409Z,11.75
2023-05-02T11:20:39.919Z,11.75
2023-05-02T11:23:27.322Z,11.96
2023-05-02T11:25:56.078Z,12.21
2023-05-02T11:28:37.453Z,12.38
2023-05-02T11:31:05.819Z,12.47
2023-05-02T11:33:32.949Z,12.57
2023-05-02T11:35:59.946Z,12.62
2023-05-02T11:38:35.151Z,12.76
2023-05-02T11:41:02.891Z,13.00
2023-05-02T11:43:31.887Z,13.12
2023-05-02T11:46:00.069Z,13.05
2023-05-02T11:48:27.455Z,13.05
2023-05-02T11:50:59.139Z,13.11
2023-05-02T11:53:29.692Z,13.13
2023-05-02T11:56:04.195Z,13.25
2023-05-02T11:58:33.889Z,13.25
2023-05-02T12:01:14.130Z,13.32
2023-05-02T12:03:41.484Z,13.25
2023-05-02T12:06:15.469Z,13.26
2023-05-02T12:08:45.292Z,13.49
2023-05-02T12:11:16.604Z,13.48
2023-05-02T12:13:50.255Z,13.38
2023-05-02T12:16:18.185Z,13.43
2023-05-02T12:18:46.239Z,13.50
2023-05-02T12:21:12.959Z,13.59
2023-05-02T12:23:40.650Z,13.47
2023-05-02T12:26:21.841Z,13.55
2023-05-02T12:28:54.270Z,13.30
2023-05-02T12:31:20.856Z,13.04
2023-05-02T12:33:48.713Z,13.25
2023-05-02T12:36:15.314Z,13.54
2023-05-02T12:38:49.405Z,13.82
2023-05-02T12:41:15.872Z,13.52
2023-05-02T12:43:49.784Z,13.20
2023-05-02T12:46:16.464Z,13.09
2023-05-02T12:48:44.844Z,12.71
2023-05-02T12:51:31.479Z,12.69
2023-05-02T12:53:57.870Z,12.97
2023-05-02T12:56:24.630Z,13.31
2023-05-02T12:58:51.535Z,13.40
2023-05-02T13:01:17.944Z,13.27
2023-05-02T13:03:44.753Z,13.28
2023-05-02T13:06:11.697Z,13.25
2023-05-02T13:08:38.290Z,13.21
2023-05-02T13:11:05.109Z,13.25
2023-05-02T13:13:32.581Z,12.62
2023-05-02T13:15:59.068Z,12.61
2023-05-02T13:18:25.780Z,12.81
2023-05-02T13:20:52.172Z,12.69
2023-05-02T13:23:18.656Z,12.91
2023-05-02T13:25:45.045Z,13.03
2023-05-02T13:28:11.502Z,13.21
2023-05-02T13:30:37.970Z,13.09
2023-05-02T13:33:04.589Z,13.22
2023-05-02T13:35:32.693Z,13.10
2023-05-02T13:38:00.440Z,12.94
2023-05-02T13:40:27.617Z,12.97
2023-05-02T13:42:54.057Z,13.02
2023-05-02T13:45:20.478Z,13.00
2023-05-02T13:47:46.953Z,12.85
2023-05-02T13:50:13.399Z,12.88
2023-05-02T13:52:39.891Z,13.03
2023-05-02T13:55:07.157Z,12.83
2023-05-02T13:57:33.578Z,12.61
2023-05-02T14:00:00.413Z,12.62
2023-05-02T14:02:27.183Z,12.64
2023-05-02T14:04:53.640Z,12.64
2023-05-02T14:07:20.031Z,12.63
2023-05-02T14:09:46.364Z,12.70
2023-05-02T14:12:12.790Z,12.75
2023-05-02T14:14:39.136Z,12.74
2023-05-02T14:17:06.531Z,12.88
2023-05-02T14:19:33.063Z,12.91
2023-05-02T14:21:59.541Z,12.75
2023-05-02T14:24:25.923Z,12.68
2023-05-02T14:26:52.680Z,12.79
2023-05-02T14:29:19.761Z,12.96
2023-05-02T14:31:46.516Z,13.38
2023-05-02T14:34:13.434Z,13.14
2023-05-02T14:36:39.820Z,13.39
2023-05-02T14:39:06.336Z,13.82
2023-05-02T14:41:32.740Z,14.59
2023-05-02T14:43:59.105Z,15.10
2023-05-02T14:46:26.160Z,14.99
2023-05-02T14:48:52.506Z,15.18
2023-05-02T14:51:18.963Z,15.69
2023-05-02T14:53:47.926Z,15.39
2023-05-02T14:56:16.327Z,15.40
2023-05-02T14:58:43.166Z,15.23
2023-05-02T15:01:18.956Z,14.76
2023-05-02T15:04:05.092Z,14.80
2023-05-02T15:06:33.418Z,15.23
2023-05-02T15:09:00.273Z,15.39
2023-05-02T15:11:26.717Z,15.33
2023-05-02T15:13:53.081Z,14.80
2023-05-02T15:16:19.728Z,15.08
2023-05-02T15:18:46.199Z,15.10
2023-05-02T15:21:12.846Z,15.19
2023-05-02T15:23:39.236Z,15.18
2023-05-02T15:26:06.392Z,15.30
2023-05-02T15:28:32.783Z,14.91
2023-05-02T15:30:59.241Z,14.70
2023-05-02T15:33:25.685Z,14.55
2023-05-02T15:35:58.176Z,14.91
2023-05-02T15:38:25.744Z,14.49
2023-05-02T15:40:55.600Z,14.41
2023-05-02T15:43:22.816Z,14.24
2023-05-02T15:45:52.357Z,14.07
2023-05-02T15:48:19.378Z,14.04
2023-05-02T15:50:47.053Z,14.07
2023-05-02T15:53:15.669Z,14.15
2023-05-02T15:55:46.232Z,13.75
2023-05-02T15:58:13.680Z,13.49
2023-05-02T16:00:40.313Z,13.84
2023-05-02T16:03:06.918Z,14.28
2023-05-02T16:05:34.059Z,14.43
2023-05-02T16:08:01.142Z,14.39
2023-05-02T16:10:27.860Z,14.41
2023-05-02T16:12:54.448Z,14.32
2023-05-02T16:15:21.224Z,14.45
2023-05-02T16:17:49.401Z,14.61
2023-05-02T16:20:17.049Z,14.37
2023-05-02T16:22:47.594Z,14.37
2023-05-02T16:25:16.023Z,14.32
2023-05-02T16:27:43.185Z,14.40
2023-05-02T16:30:10.120Z,14.20
2023-05-02T16:32:39.328Z,14.21
2023-05-02T16:35:08.405Z,14.25
2023-05-02T16:37:35.496Z,14.09
2023-05-02T16:40:05.420Z,13.89
2023-05-02T16:42:32.489Z,13.85
2023-05-02T16:44:58.927Z,13.89
2023-05-02T16:47:25.599Z,13.92
2023-05-02T16:49:59.387Z,13.75
2023-05-02T16:52:26.524Z,13.61
2023-05-02T16:54:53.629Z,13.53
2023-05-02T16:57:21.669Z,13.39
2023-05-02T16:59:49.506Z,13.45
2023-05-02T17:02:16.707Z,13.48
2023-05-02T17:04:43.822Z,13.47
2023-05-02T17:07:13.157Z,13.45
2023-05-02T17:09:41.323Z,13.57
2023-05-02T17:12:10.242Z,13.55
2023-05-02T17:14:37.986Z,13.58
2023-05-02T17:17:04.466Z,13.40
2023-05-02T17:19:31.362Z,13.30
2023-05-02T17:21:58.377Z,12.99
2023-05-02T17:24:25.354Z,12.78
2023-05-02T17:26:52.781Z,12.68
2023-05-02T17:29:19.324Z,12.72
2023-05-02T17:31:45.904Z,12.67
2023-05-02T17:34:12.690Z,12.70
2023-05-02T17:36:41.830Z,12.81
2023-05-02T17:39:09.441Z,12.74
2023-05-02T17:41:36.636Z,12.72
2023-05-02T17:44:04.693Z,12.43
2023-05-02T17:46:31.646Z,12.35
2023-05-02T17:48:58.420Z,12.19
2023-05-02T17:51:24.759Z,12.11
2023-05-02T17:53:51.799Z,11.99
2023-05-02T17:56:21.241Z,11.81
2023-05-02T17:58:47.938Z,11.92
2023-05-02T18:01:14.492Z,11.93
2023-05-02T18:03:41.972Z,11.94
2023-05-02T18:06:09.010Z,11.81
2023-05-02T18:08:36.099Z,11.67
2023-05-02T18:11:03.375Z,11.52
2023-05-02T18:13:30.620Z,11.44
2023-05-02T18:16:03.489Z,11.40
2023-05-02T18:18:30.084Z,11.27
2023-05-02T18:20:56.696Z,11.19
2023-05-02T18:23:23.271Z,10.98
2023-05-02T18:25:49.745Z,10.84
2023-05-02T18:28:16.113Z,10.87
2023-05-02T18:30:42.609Z,10.67
2023-05-02T18:33:09.119Z,10.74
2023-05-02T18:35:36.090Z,10.73
2023-05-02T18:38:06.507Z,10.48
2023-05-02T18:40:32.958Z,10.53
2023-05-02T18:42:59.759Z,10.35
2023-05-02T18:45:26.254Z,10.25
2023-05-02T18:47:53.413Z,10.15
2023-05-02T18:50:20.006Z,10.00
2023-05-02T18:52:46.610Z,9.79
2023-05-02T18:55:13.014Z,9.66
2023-05-02T18:57:39.450Z,9.56
2023-05-02T19:00:06.674Z,9.44
2023-05-02T19:02:33.513Z,9.25
2023-05-02T19:05:00.439Z,9.05
2023-05-02T19:07:27.639Z,8.80
2023-05-02T19:09:54.049Z,8.72
2023-05-02T19:12:20.462Z,8.63
2023-05-02T19:14:47.786Z,8.49
2023-05-02T19:17:14.216Z,8.40
2023-05-02T19:19:41.618Z,8.36
2023-05-02T19:22:08.334Z,8.20
2023-05-02T19:24:35.951Z,8.03
2023-05-02T19:27:06.864Z,7.97
2023-05-02T19:29:34.230Z,7.86
2023-05-02T19:32:01.122Z,7.78
2023-05-02T19:34:28.166Z,7.68
2023-05-02T19:36:55.455Z,7.66
2023-05-02T19:39:21.824Z,7.60
2023-05-02T19:41:49.802Z,7.51
2023-05-02T19:44:16.763Z,7.45
2023-05-02T19:46:43.268Z,7.34
2023-05-02T19:49:09.824Z,7.21
2023-05-02T19:51:36.201Z,7.06
2023-05-02T19:54:02.666Z,6.88
2023-05-02T19:56:29.866Z,6.83
2023-05-02T19:58:59.461Z,6.69
2023-05-02T20:01:31.020Z,6.55
2023-05-02T20:03:57.940Z,6.43
2023-05-02T20:06:24.529Z,6.42
2023-05-02T20:08:52.425Z,6.37
2023-05-02T20:11:19.528Z,6.25
2023-05-02T20:13:45.907Z,6.12
2023-05-02T20:16:14.252Z,6.08
2023-05-02T20:18:40.769Z,6.02
2023-05-02T20:21:07.242Z,5.98
2023-05-02T20:23:33.636Z,5.95
2023-05-02T20:26:00.335Z,5.95
2023-05-02T20:28:27.229Z,5.94
2023-05-02T20:30:53.593Z,5.98
2023-05-02T20:33:23.072Z,5.98
2023-05-02T20:35:54.993Z,5.96
2023-05-02T20:38:23.999Z,5.99
2023-05-02T20:40:50.692Z,5.97
2023-05-02T20:43:22.815Z,5.88
2023-05-02T20:45:49.596Z,5.81
2023-05-02T20:48:19.815Z,5.81
2023-05-02T20:50:54.655Z,5.83
2023-05-02T20:53:23.741Z,5.79
2023-05-02T20:55:50.793Z,5.79
2023-05-02T20:58:17.168Z,5.75
2023-05-02T21:00:43.559Z,5.72
2023-05-02T21:03:10.127Z,5.64
2023-05-02T21:05:36.806Z,5.68
2023-05-02T21:08:03.249Z,5.67
2023-05-02T21:10:30.433Z,5.60
2023-05-02T21:12:56.811Z,5.56
2023-05-02T21:15:23.196Z,5.51
2023-05-02T21:17:49.936Z,5.49
2023-05-02T21:20:16.324Z,5.45
2023-05-02T21:22:42.909Z,5.44
2023-05-02T21:25:09.720Z,5.43
2023-05-02T21:27:36.398Z,5.39
2023-05-02T21:30:03.056Z,5.21
2023-05-02T21:32:30.100Z,5.13
2023-05-02T21:34:56.543Z,5.12
2023-05-02T21:37:22.899Z,5.13
2023-05-02T21:39:49.468Z,5.09
2023-05-02T21:42:15.840Z,5.03
2023-05-02T21:44:43.352Z,5.00
2023-05-02T21:47:09.979Z,5.00
2023-05-02T21:49:36.780Z,5.00
2023-05-02T21:52:03.813Z,4.99
2023-05-02T21:54:30.227Z,4.91
2023-05-02T21:56:56.917Z,4.80
2023-05-02T21:59:23.277Z,4.72
2023-05-02T22:01:50.293Z,4.66
2023-05-02T22:04:17.917Z,4.62
2023-05-02T22:06:50.282Z,4.57
2023-05-02T22:09:17.336Z,4.50
2023-05-02T22:11:44.064Z,4.49
2023-05-02T22:14:11.578Z,4.45
2023-05-02T22:16:39.875Z,4.45
2023-05-02T22:19:07.381Z,4.47
2023-05-02T22:21:34.102Z,4.48
2023-05-02T22:24:00.692Z,4.40
2023-05-02T22:26:27.061Z,4.43
2023-05-02T22:28:53.510Z,4.40
2023-05-02T22:31:20.224Z,4.39
2023-05-02T22:33:49.729Z,4.28
2023-05-02T22:36:17.919Z,4.32
2023-05-02T22:38:44.373Z,4.24
2023-05-02T22:41:11.188Z,4.21
2023-05-02T22:43:37.546Z,4.27
2023-05-02T22:46:04.009Z,4.27
2023-05-02T22:48:30.781Z,4.29
2023-05-02T22:50:57.343Z,4.27
2023-05-02T22:53:23.773Z,4.31
2023-05-02T22:55:51.854Z,4.20
2023-05-02T22:58:18.657Z,4.15
2023-05-02T23:00:45.108Z,4.02
2023-05-02T23:03:11.899Z,3.86
2023-05-02T23:05:38.488Z,3.68
2023-05-02T23:08:04.995Z,3.66
2023-05-02T23:10:31.409Z,3.55
2023-05-02T23:12:57.881Z,3.58
2023-05-02T23:15:24.663Z,3.64
2023-05-02T23:17:51.045Z,3.63
2023-05-02T23:20:19.865Z,3.67
2023-05-02T23:22:46.853Z,3.61
2023-05-02T23:25:14.923Z,3.58
2023-05-02T23:27:41.759Z,3.54
2023-05-02T23:30:08.667Z,3.55
2023-05-02T23:32:35.352Z,3.61
2023-05-02T23:35:02.300Z,3.53
2023-05-02T23:37:29.391Z,3.48
2023-05-02T23:39:57.604Z,3.45
2023-05-02T23:42:24.070Z,3.50
2023-05-02T23:44:50.503Z,3.47
2023-05-02T23:47:16.948Z,3.45
2023-05-02T23:49:43.329Z,3.36
2023-05-02T23:52:09.719Z,3.32
2023-05-02T23:54:36.295Z,3.31
2023-05-02T23:57:03.175Z,3.25
2023-05-02T23:59:29.702Z,3.19
